sensor_id;sensor_type;location;lat;lon;timestamp;temperature;humidity
12907;DHT22;6521;50.498;8.474;2023-01-15T00:02:30;9.10;93.44
12907;DHT22;6521;50.498;8.474;2023-01-15T00:05:01;8.92;92.88
12907;DHT22;6521;50.498;8.474;2023-01-15T00:07:32;8.69;92.67
12907;DHT22;6521;50.498;8.474;2023-01-15T00:10:04;8.55;92.83
12907;DHT22;6521;50.498;8.474;2023-01-15T00:12:34;8.44;92.63
12907;DHT22;6521;50.498;8.474;2023-01-15T00:15:05;8.31;93.02
12907;DHT22;6521;50.498;8.474;2023-01-15T00:17:36;8.29;93.03
12907;DHT22;6521;50.498;8.474;2023-01-15T00:20:07;8.20;92.88
12907;DHT22;6521;50.498;8.474;2023-01-15T00:22:38;8.10;92.97
12907;DHT22;6521;50.498;8.474;2023-01-15T00:25:10;8.10;93.15
12907;DHT22;6521;50.498;8.474;2023-01-15T00:27:59;8.09;93.20
12907;DHT22;6521;50.498;8.474;2023-01-15T00:30:30;8.03;93.35
12907;DHT22;6521;50.498;8.474;2023-01-15T00:33:03;8.00;93.47
12907;DHT22;6521;50.498;8.474;2023-01-15T00:35:34;8.07;93.72
12907;DHT22;6521;50.498;8.474;2023-01-15T00:38:05;8.06;93.53
12907;DHT22;6521;50.498;8.474;2023-01-15T00:40:36;8.06;93.65
12907;DHT22;6521;50.498;8.474;2023-01-15T00:43:06;8.07;93.67
12907;DHT22;6521;50.498;8.474;2023-01-15T00:45:37;8.09;93.94
12907;DHT22;6521;50.498;8.474;2023-01-15T00:48:08;8.04;93.90
12907;DHT22;6521;50.498;8.474;2023-01-15T00:50:39;8.02;94.14
12907;DHT22;6521;50.498;8.474;2023-01-15T00:53:10;8.04;94.08
12907;DHT22;6521;50.498;8.474;2023-01-15T00:55:41;8.03;94.16
12907;DHT22;6521;50.498;8.474;2023-01-15T00:58:12;8.04;94.19
12907;DHT22;6521;50.498;8.474;2023-01-15T01:00:42;7.94;92.71
12907;DHT22;6521;50.498;8.474;2023-01-15T01:03:13;7.75;91.29
12907;DHT22;6521;50.498;8.474;2023-01-15T01:05:44;7.54;91.20
12907;DHT22;6521;50.498;8.474;2023-01-15T01:08:15;7.50;91.50
12907;DHT22;6521;50.498;8.474;2023-01-15T01:10:46;7.36;91.59
12907;DHT22;6521;50.498;8.474;2023-01-15T01:13:16;7.36;91.62
12907;DHT22;6521;50.498;8.474;2023-01-15T01:15:47;7.25;91.60
12907;DHT22;6521;50.498;8.474;2023-01-15T01:18:20;7.14;91.84
12907;DHT22;6521;50.498;8.474;2023-01-15T01:20:51;7.08;91.91
12907;DHT22;6521;50.498;8.474;2023-01-15T01:23:23;7.07;91.63
12907;DHT22;6521;50.498;8.474;2023-01-15T01:25:56;7.04;91.65
12907;DHT22;6521;50.498;8.474;2023-01-15T01:28:27;7.00;91.76
12907;DHT22;6521;50.498;8.474;2023-01-15T01:30:58;6.96;91.66
12907;DHT22;6521;50.498;8.474;2023-01-15T01:33:28;6.92;91.60
12907;DHT22;6521;50.498;8.474;2023-01-15T01:35:59;6.90;91.61
12907;DHT22;6521;50.498;8.474;2023-01-15T01:38:30;6.82;91.53
12907;DHT22;6521;50.498;8.474;2023-01-15T01:41:01;6.80;91.38
12907;DHT22;6521;50.498;8.474;2023-01-15T01:43:51;6.79;91.39
12907;DHT22;6521;50.498;8.474;2023-01-15T01:46:24;6.77;91.25
12907;DHT22;6521;50.498;8.474;2023-01-15T01:49:03;6.71;91.59
12907;DHT22;6521;50.498;8.474;2023-01-15T01:51:38;6.65;91.69
12907;DHT22;6521;50.498;8.474;2023-01-15T01:54:12;6.59;92.10
12907;DHT22;6521;50.498;8.474;2023-01-15T01:56:44;6.57;92.18
12907;DHT22;6521;50.498;8.474;2023-01-15T01:59:17;6.53;92.25
12907;DHT22;6521;50.498;8.474;2023-01-15T02:01:49;6.53;92.53
12907;DHT22;6521;50.498;8.474;2023-01-15T02:04:23;6.49;92.39
12907;DHT22;6521;50.498;8.474;2023-01-15T02:06:57;6.45;92.55
12907;DHT22;6521;50.498;8.474;2023-01-15T02:09:29;6.46;92.24
12907;DHT22;6521;50.498;8.474;2023-01-15T02:12:08;6.44;91.24
12907;DHT22;6521;50.498;8.474;2023-01-15T02:14:48;6.29;90.76
12907;DHT22;6521;50.498;8.474;2023-01-15T02:17:34;6.15;90.54
12907;DHT22;6521;50.498;8.474;2023-01-15T02:28:35;5.87;91.34
12907;DHT22;6521;50.498;8.474;2023-01-15T02:31:14;5.81;91.58
12907;DHT22;6521;50.498;8.474;2023-01-15T02:33:52;5.77;91.21
12907;DHT22;6521;50.498;8.474;2023-01-15T02:36:27;5.71;90.74
12907;DHT22;6521;50.498;8.474;2023-01-15T02:39:06;5.66;90.17
12907;DHT22;6521;50.498;8.474;2023-01-15T02:41:43;5.57;88.83
12907;DHT22;6521;50.498;8.474;2023-01-15T02:44:17;5.45;88.69
12907;DHT22;6521;50.498;8.474;2023-01-15T02:46:49;5.39;89.14
12907;DHT22;6521;50.498;8.474;2023-01-15T02:49:21;5.28;89.48
12907;DHT22;6521;50.498;8.474;2023-01-15T02:51:57;5.24;90.07
12907;DHT22;6521;50.498;8.474;2023-01-15T02:54:35;5.18;89.73
12907;DHT22;6521;50.498;8.474;2023-01-15T02:57:12;5.18;90.06
12907;DHT22;6521;50.498;8.474;2023-01-15T02:59:46;5.18;90.17
12907;DHT22;6521;50.498;8.474;2023-01-15T03:02:20;5.12;90.01
12907;DHT22;6521;50.498;8.474;2023-01-15T03:04:59;5.07;90.13
12907;DHT22;6521;50.498;8.474;2023-01-15T03:07:44;5.07;90.24
12907;DHT22;6521;50.498;8.474;2023-01-15T03:10:18;5.01;90.03
12907;DHT22;6521;50.498;8.474;2023-01-15T03:12:59;4.99;89.84
12907;DHT22;6521;50.498;8.474;2023-01-15T03:16:01;4.95;90.04
12907;DHT22;6521;50.498;8.474;2023-01-15T03:21:40;4.88;89.60
12907;DHT22;6521;50.498;8.474;2023-01-15T03:24:29;4.81;89.52
12907;DHT22;6521;50.498;8.474;2023-01-15T03:27:02;4.83;89.76
12907;DHT22;6521;50.498;8.474;2023-01-15T03:29:39;4.77;89.52
12907;DHT22;6521;50.498;8.474;2023-01-15T03:32:11;4.71;89.30
12907;DHT22;6521;50.498;8.474;2023-01-15T03:34:45;4.71;89.41
12907;DHT22;6521;50.498;8.474;2023-01-15T03:37:23;4.64;89.69
12907;DHT22;6521;50.498;8.474;2023-01-15T03:39:56;4.68;89.80
12907;DHT22;6521;50.498;8.474;2023-01-15T03:42:44;4.67;90.01
12907;DHT22;6521;50.498;8.474;2023-01-15T03:45:25;4.66;89.82
12907;DHT22;6521;50.498;8.474;2023-01-15T03:48:07;4.68;89.73
12907;DHT22;6521;50.498;8.474;2023-01-15T03:50:54;4.66;89.25
12907;DHT22;6521;50.498;8.474;2023-01-15T03:53:35;4.60;88.93
12907;DHT22;6521;50.498;8.474;2023-01-15T03:56:14;4.57;89.21
12907;DHT22;6521;50.498;8.474;2023-01-15T03:59:04;4.56;89.39
12907;DHT22;6521;50.498;8.474;2023-01-15T04:01:53;4.53;89.36
12907;DHT22;6521;50.498;8.474;2023-01-15T04:04:27;4.43;89.64
12907;DHT22;6521;50.498;8.474;2023-01-15T04:06:58;4.45;89.66
12907;DHT22;6521;50.498;8.474;2023-01-15T04:09:31;4.42;89.83
12907;DHT22;6521;50.498;8.474;2023-01-15T04:12:03;4.42;89.97
12907;DHT22;6521;50.498;8.474;2023-01-15T04:14:38;4.46;89.93
12907;DHT22;6521;50.498;8.474;2023-01-15T04:17:13;4.42;90.11
12907;DHT22;6521;50.498;8.474;2023-01-15T04:19:43;4.45;90.09
12907;DHT22;6521;50.498;8.474;2023-01-15T04:22:14;4.42;89.93
12907;DHT22;6521;50.498;8.474;2023-01-15T04:24:45;4.40;90.33
12907;DHT22;6521;50.498;8.474;2023-01-15T04:27:15;4.37;90.24
12907;DHT22;6521;50.498;8.474;2023-01-15T04:29:46;4.40;90.59
12907;DHT22;6521;50.498;8.474;2023-01-15T04:32:17;4.35;90.80
12907;DHT22;6521;50.498;8.474;2023-01-15T04:34:48;4.33;90.81
12907;DHT22;6521;50.498;8.474;2023-01-15T04:37:20;4.32;91.01
12907;DHT22;6521;50.498;8.474;2023-01-15T04:39:51;4.29;90.98
12907;DHT22;6521;50.498;8.474;2023-01-15T04:42:21;4.29;91.42
12907;DHT22;6521;50.498;8.474;2023-01-15T04:45:11;4.30;91.50
12907;DHT22;6521;50.498;8.474;2023-01-15T04:47:42;4.28;91.56
12907;DHT22;6521;50.498;8.474;2023-01-15T04:50:12;4.32;91.52
12907;DHT22;6521;50.498;8.474;2023-01-15T04:52:43;4.29;91.38
12907;DHT22;6521;50.498;8.474;2023-01-15T04:55:14;4.32;91.17
12907;DHT22;6521;50.498;8.474;2023-01-15T04:57:48;4.23;91.29
12907;DHT22;6521;50.498;8.474;2023-01-15T05:00:19;4.25;91.08
12907;DHT22;6521;50.498;8.474;2023-01-15T05:02:51;4.20;91.39
12907;DHT22;6521;50.498;8.474;2023-01-15T05:05:22;4.18;91.75
12907;DHT22;6521;50.498;8.474;2023-01-15T05:07:52;4.15;91.82
12907;DHT22;6521;50.498;8.474;2023-01-15T05:10:23;4.13;91.77
12907;DHT22;6521;50.498;8.474;2023-01-15T05:12:54;4.15;91.83
12907;DHT22;6521;50.498;8.474;2023-01-15T05:15:24;4.19;91.94
12907;DHT22;6521;50.498;8.474;2023-01-15T05:17:55;4.18;91.88
12907;DHT22;6521;50.498;8.474;2023-01-15T05:20:26;4.15;92.14
12907;DHT22;6521;50.498;8.474;2023-01-15T05:22:56;4.10;91.98
12907;DHT22;6521;50.498;8.474;2023-01-15T05:25:27;4.16;92.06
12907;DHT22;6521;50.498;8.474;2023-01-15T05:27:58;4.15;91.51
12907;DHT22;6521;50.498;8.474;2023-01-15T05:30:29;4.03;91.72
12907;DHT22;6521;50.498;8.474;2023-01-15T05:32:59;4.02;91.90
12907;DHT22;6521;50.498;8.474;2023-01-15T05:35:30;4.03;91.82
12907;DHT22;6521;50.498;8.474;2023-01-15T05:38:01;4.01;91.82
12907;DHT22;6521;50.498;8.474;2023-01-15T05:40:33;3.92;91.85
12907;DHT22;6521;50.498;8.474;2023-01-15T05:43:04;3.91;92.03
12907;DHT22;6521;50.498;8.474;2023-01-15T05:45:34;3.95;91.92
12907;DHT22;6521;50.498;8.474;2023-01-15T05:48:07;3.89;91.52
12907;DHT22;6521;50.498;8.474;2023-01-15T05:50:38;3.89;91.99
12907;DHT22;6521;50.498;8.474;2023-01-15T05:53:08;3.89;92.26
12907;DHT22;6521;50.498;8.474;2023-01-15T05:55:39;3.87;92.16
12907;DHT22;6521;50.498;8.474;2023-01-15T05:58:10;3.85;92.09
12907;DHT22;6521;50.498;8.474;2023-01-15T06:00:41;3.82;92.16
12907;DHT22;6521;50.498;8.474;2023-01-15T06:03:11;3.74;91.76
12907;DHT22;6521;50.498;8.474;2023-01-15T06:05:42;3.71;92.23
12907;DHT22;6521;50.498;8.474;2023-01-15T06:08:13;3.71;92.06
12907;DHT22;6521;50.498;8.474;2023-01-15T06:10:44;3.68;92.05
12907;DHT22;6521;50.498;8.474;2023-01-15T06:13:16;3.68;92.03
12907;DHT22;6521;50.498;8.474;2023-01-15T06:15:47;3.64;92.23
12907;DHT22;6521;50.498;8.474;2023-01-15T06:18:17;3.58;92.49
12907;DHT22;6521;50.498;8.474;2023-01-15T06:20:48;3.56;92.28
12907;DHT22;6521;50.498;8.474;2023-01-15T06:23:19;3.56;92.39
12907;DHT22;6521;50.498;8.474;2023-01-15T06:25:50;3.53;92.51
12907;DHT22;6521;50.498;8.474;2023-01-15T06:28:20;3.53;92.43
12907;DHT22;6521;50.498;8.474;2023-01-15T06:30:52;3.53;92.34
12907;DHT22;6521;50.498;8.474;2023-01-15T06:33:23;3.47;92.30
12907;DHT22;6521;50.498;8.474;2023-01-15T06:35:55;3.48;92.44
12907;DHT22;6521;50.498;8.474;2023-01-15T06:38:26;3.56;92.07
12907;DHT22;6521;50.498;8.474;2023-01-15T06:40:59;3.54;91.99
12907;DHT22;6521;50.498;8.474;2023-01-15T06:43:30;3.56;91.88
12907;DHT22;6521;50.498;8.474;2023-01-15T06:46:19;3.51;92.16
12907;DHT22;6521;50.498;8.474;2023-01-15T06:49:08;3.51;92.26
12907;DHT22;6521;50.498;8.474;2023-01-15T06:51:39;3.53;92.06
12907;DHT22;6521;50.498;8.474;2023-01-15T06:54:10;3.54;91.90
12907;DHT22;6521;50.498;8.474;2023-01-15T06:56:40;3.56;92.21
12907;DHT22;6521;50.498;8.474;2023-01-15T06:59:11;3.50;92.31
12907;DHT22;6521;50.498;8.474;2023-01-15T07:01:42;3.51;92.21
12907;DHT22;6521;50.498;8.474;2023-01-15T07:04:13;3.48;92.30
12907;DHT22;6521;50.498;8.474;2023-01-15T07:06:44;3.48;92.38
12907;DHT22;6521;50.498;8.474;2023-01-15T07:09:17;3.50;92.33
12907;DHT22;6521;50.498;8.474;2023-01-15T07:11:47;3.48;92.41
12907;DHT22;6521;50.498;8.474;2023-01-15T07:14:23;3.44;92.52
12907;DHT22;6521;50.498;8.474;2023-01-15T07:16:54;3.41;92.51
12907;DHT22;6521;50.498;8.474;2023-01-15T07:19:25;3.36;92.26
12907;DHT22;6521;50.498;8.474;2023-01-15T07:21:57;3.31;92.56
12907;DHT22;6521;50.498;8.474;2023-01-15T07:24:27;3.27;92.83
12907;DHT22;6521;50.498;8.474;2023-01-15T07:26:58;3.30;92.84
12907;DHT22;6521;50.498;8.474;2023-01-15T07:29:29;3.22;93.00
12907;DHT22;6521;50.498;8.474;2023-01-15T07:32:02;3.26;92.92
12907;DHT22;6521;50.498;8.474;2023-01-15T07:34:33;3.23;92.93
12907;DHT22;6521;50.498;8.474;2023-01-15T07:37:04;3.19;93.02
12907;DHT22;6521;50.498;8.474;2023-01-15T07:39:35;3.16;92.79
12907;DHT22;6521;50.498;8.474;2023-01-15T07:42:09;3.15;93.00
12907;DHT22;6521;50.498;8.474;2023-01-15T07:44:58;3.08;93.12
12907;DHT22;6521;50.498;8.474;2023-01-15T07:47:48;3.05;93.13
12907;DHT22;6521;50.498;8.474;2023-01-15T07:50:38;3.03;93.29
12907;DHT22;6521;50.498;8.474;2023-01-15T07:53:08;3.00;93.40
12907;DHT22;6521;50.498;8.474;2023-01-15T07:55:39;3.00;93.40
12907;DHT22;6521;50.498;8.474;2023-01-15T07:58:10;3.00;93.50
12907;DHT22;6521;50.498;8.474;2023-01-15T08:00:41;2.93;93.62
12907;DHT22;6521;50.498;8.474;2023-01-15T08:03:11;2.98;93.43
12907;DHT22;6521;50.498;8.474;2023-01-15T08:05:42;2.91;93.69
12907;DHT22;6521;50.498;8.474;2023-01-15T08:08:16;2.93;93.78
12907;DHT22;6521;50.498;8.474;2023-01-15T08:10:47;2.91;93.82
12907;DHT22;6521;50.498;8.474;2023-01-15T08:13:37;2.92;93.87
12907;DHT22;6521;50.498;8.474;2023-01-15T08:16:26;2.91;93.74
12907;DHT22;6521;50.498;8.474;2023-01-15T08:18:59;2.95;93.92
12907;DHT22;6521;50.498;8.474;2023-01-15T08:21:30;2.96;94.04
12907;DHT22;6521;50.498;8.474;2023-01-15T08:24:00;2.98;94.08
12907;DHT22;6521;50.498;8.474;2023-01-15T08:26:31;3.06;94.00
12907;DHT22;6521;50.498;8.474;2023-01-15T08:29:02;3.05;93.86
12907;DHT22;6521;50.498;8.474;2023-01-15T08:31:32;3.08;94.10
12907;DHT22;6521;50.498;8.474;2023-01-15T08:34:03;3.13;93.83
12907;DHT22;6521;50.498;8.474;2023-01-15T08:36:34;3.13;93.78
12907;DHT22;6521;50.498;8.474;2023-01-15T08:39:05;3.15;93.97
12907;DHT22;6521;50.498;8.474;2023-01-15T08:41:36;3.17;93.95
12907;DHT22;6521;50.498;8.474;2023-01-15T08:44:08;3.20;94.06
12907;DHT22;6521;50.498;8.474;2023-01-15T08:46:39;3.26;94.19
12907;DHT22;6521;50.498;8.474;2023-01-15T08:49:09;3.30;94.10
12907;DHT22;6521;50.498;8.474;2023-01-15T08:51:40;3.30;94.17
12907;DHT22;6521;50.498;8.474;2023-01-15T08:54:11;3.36;94.20
12907;DHT22;6521;50.498;8.474;2023-01-15T08:56:43;3.40;94.19
12907;DHT22;6521;50.498;8.474;2023-01-15T08:59:17;3.43;93.96
12907;DHT22;6521;50.498;8.474;2023-01-15T09:01:52;3.44;94.13
12907;DHT22;6521;50.498;8.474;2023-01-15T09:04:22;3.41;93.94
12907;DHT22;6521;50.498;8.474;2023-01-15T09:06:53;3.40;93.92
12907;DHT22;6521;50.498;8.474;2023-01-15T09:09:24;3.43;94.02
12907;DHT22;6521;50.498;8.474;2023-01-15T09:11:54;3.48;94.04
12907;DHT22;6521;50.498;8.474;2023-01-15T09:14:25;3.51;94.14
12907;DHT22;6521;50.498;8.474;2023-01-15T09:16:59;3.54;93.82
12907;DHT22;6521;50.498;8.474;2023-01-15T09:19:30;3.57;93.90
12907;DHT22;6521;50.498;8.474;2023-01-15T09:22:01;3.66;93.93
12907;DHT22;6521;50.498;8.474;2023-01-15T09:24:31;3.66;94.01
12907;DHT22;6521;50.498;8.474;2023-01-15T09:27:02;3.70;94.06
12907;DHT22;6521;50.498;8.474;2023-01-15T09:29:33;3.73;93.91
12907;DHT22;6521;50.498;8.474;2023-01-15T09:32:03;3.75;93.73
12907;DHT22;6521;50.498;8.474;2023-01-15T09:34:34;3.81;93.53
12907;DHT22;6521;50.498;8.474;2023-01-15T09:37:05;3.82;93.47
12907;DHT22;6521;50.498;8.474;2023-01-15T09:39:36;3.85;93.51
12907;DHT22;6521;50.498;8.474;2023-01-15T09:42:27;3.85;93.25
12907;DHT22;6521;50.498;8.474;2023-01-15T09:56:00;4.02;91.84
12907;DHT22;6521;50.498;8.474;2023-01-15T09:58:36;4.06;91.80
12907;DHT22;6521;50.498;8.474;2023-01-15T10:01:19;4.08;91.48
12907;DHT22;6521;50.498;8.474;2023-01-15T10:06:41;4.22;89.88
12907;DHT22;6521;50.498;8.474;2023-01-15T10:09:22;4.23;89.90
12907;DHT22;6521;50.498;8.474;2023-01-15T10:11:58;4.22;90.12
12907;DHT22;6521;50.498;8.474;2023-01-15T10:17:48;4.29;90.07
12907;DHT22;6521;50.498;8.474;2023-01-15T10:20:32;4.30;89.77
12907;DHT22;6521;50.498;8.474;2023-01-15T10:23:19;4.30;89.57
12907;DHT22;6521;50.498;8.474;2023-01-15T10:26:22;4.26;89.39
12907;DHT22;6521;50.498;8.474;2023-01-15T10:31:30;4.32;89.00
12907;DHT22;6521;50.498;8.474;2023-01-15T10:40:28;4.35;88.54
12907;DHT22;6521;50.498;8.474;2023-01-15T10:43:13;4.33;87.84
12907;DHT22;6521;50.498;8.474;2023-01-15T10:45:55;4.25;88.13
12907;DHT22;6521;50.498;8.474;2023-01-15T10:48:31;4.26;88.27
12907;DHT22;6521;50.498;8.474;2023-01-15T10:51:16;4.32;88.46
12907;DHT22;6521;50.498;8.474;2023-01-15T10:54:25;4.32;87.97
12907;DHT22;6521;50.498;8.474;2023-01-15T10:57:16;4.29;88.12
12907;DHT22;6521;50.498;8.474;2023-01-15T10:59:58;4.33;87.89
12907;DHT22;6521;50.498;8.474;2023-01-15T11:02:43;4.39;87.47
12907;DHT22;6521;50.498;8.474;2023-01-15T11:05:17;4.39;87.24
12907;DHT22;6521;50.498;8.474;2023-01-15T11:07:52;4.43;87.35
12907;DHT22;6521;50.498;8.474;2023-01-15T11:10:23;4.47;87.18
12907;DHT22;6521;50.498;8.474;2023-01-15T11:13:15;4.53;87.06
12907;DHT22;6521;50.498;8.474;2023-01-15T11:16:20;4.70;86.88
12907;DHT22;6521;50.498;8.474;2023-01-15T11:19:35;4.81;86.24
12907;DHT22;6521;50.498;8.474;2023-01-15T11:22:11;4.84;86.37
12907;DHT22;6521;50.498;8.474;2023-01-15T11:24:56;4.87;86.34
12907;DHT22;6521;50.498;8.474;2023-01-15T11:27:30;4.85;85.95
12907;DHT22;6521;50.498;8.474;2023-01-15T11:30:05;4.84;86.35
12907;DHT22;6521;50.498;8.474;2023-01-15T11:32:37;4.88;87.06
12907;DHT22;6521;50.498;8.474;2023-01-15T11:37:38;4.81;85.08
12907;DHT22;6521;50.498;8.474;2023-01-15T11:40:20;4.83;86.04
12907;DHT22;6521;50.498;8.474;2023-01-15T11:42:53;4.84;85.35
12907;DHT22;6521;50.498;8.474;2023-01-15T11:45:51;4.77;84.90
12907;DHT22;6521;50.498;8.474;2023-01-15T11:48:46;4.77;85.15
12907;DHT22;6521;50.498;8.474;2023-01-15T11:51:42;4.74;85.07
12907;DHT22;6521;50.498;8.474;2023-01-15T11:54:15;4.73;84.74
12907;DHT22;6521;50.498;8.474;2023-01-15T11:56:47;4.73;84.24
12907;DHT22;6521;50.498;8.474;2023-01-15T11:59:18;4.77;84.02
12907;DHT22;6521;50.498;8.474;2023-01-15T12:02:01;4.81;84.00
12907;DHT22;6521;50.498;8.474;2023-01-15T12:04:48;4.84;83.70
12907;DHT22;6521;50.498;8.474;2023-01-15T12:07:25;4.95;83.62
12907;DHT22;6521;50.498;8.474;2023-01-15T12:15:31;5.29;83.67
12907;DHT22;6521;50.498;8.474;2023-01-15T12:18:43;5.31;81.97
12907;DHT22;6521;50.498;8.474;2023-01-15T12:32:48;5.90;77.88
12907;DHT22;6521;50.498;8.474;2023-01-15T12:35:31;5.76;78.32
12907;DHT22;6521;50.498;8.474;2023-01-15T12:38:15;6.00;79.44
12907;DHT22;6521;50.498;8.474;2023-01-15T12:40:51;6.26;79.99
12907;DHT22;6521;50.498;8.474;2023-01-15T12:43:25;6.21;76.72
12907;DHT22;6521;50.498;8.474;2023-01-15T12:46:24;6.13;77.20
12907;DHT22;6521;50.498;8.474;2023-01-15T12:49:08;6.04;78.21
12907;DHT22;6521;50.498;8.474;2023-01-15T12:51:49;5.95;77.40
12907;DHT22;6521;50.498;8.474;2023-01-15T12:54:33;5.83;77.69
12907;DHT22;6521;50.498;8.474;2023-01-15T12:57:40;5.70;75.57
12907;DHT22;6521;50.498;8.474;2023-01-15T13:03:26;5.46;77.68
12907;DHT22;6521;50.498;8.474;2023-01-15T13:06:04;5.46;77.63
12907;DHT22;6521;50.498;8.474;2023-01-15T13:11:24;5.40;77.42
12907;DHT22;6521;50.498;8.474;2023-01-15T13:13:55;5.43;76.14
12907;DHT22;6521;50.498;8.474;2023-01-15T13:19:36;5.55;78.07
12907;DHT22;6521;50.498;8.474;2023-01-15T13:22:13;5.74;77.76
12907;DHT22;6521;50.498;8.474;2023-01-15T13:25:17;6.01;75.93
12907;DHT22;6521;50.498;8.474;2023-01-15T13:34:07;5.78;74.55
12907;DHT22;6521;50.498;8.474;2023-01-15T13:36:43;5.70;75.26
12907;DHT22;6521;50.498;8.474;2023-01-15T13:39:23;5.57;74.58
12907;DHT22;6521;50.498;8.474;2023-01-15T13:41:54;5.57;74.22
12907;DHT22;6521;50.498;8.474;2023-01-15T13:44:47;5.50;75.36
12907;DHT22;6521;50.498;8.474;2023-01-15T13:47:24;5.50;74.49
12907;DHT22;6521;50.498;8.474;2023-01-15T13:49:59;5.46;74.90
12907;DHT22;6521;50.498;8.474;2023-01-15T13:52:35;5.46;74.38
12907;DHT22;6521;50.498;8.474;2023-01-15T13:57:40;5.43;75.06
12907;DHT22;6521;50.498;8.474;2023-01-15T14:00:35;5.42;75.65
12907;DHT22;6521;50.498;8.474;2023-01-15T14:03:28;5.40;74.49
12907;DHT22;6521;50.498;8.474;2023-01-15T14:06:02;5.42;74.22
12907;DHT22;6521;50.498;8.474;2023-01-15T14:08:41;5.42;74.76
12907;DHT22;6521;50.498;8.474;2023-01-15T14:14:13;5.47;73.33
12907;DHT22;6521;50.498;8.474;2023-01-15T14:16:58;5.55;72.95
12907;DHT22;6521;50.498;8.474;2023-01-15T14:25:35;5.53;74.39
12907;DHT22;6521;50.498;8.474;2023-01-15T14:36:40;5.49;72.79
12907;DHT22;6521;50.498;8.474;2023-01-15T14:45:16;5.53;72.48
12907;DHT22;6521;50.498;8.474;2023-01-15T14:47:50;5.47;72.03
12907;DHT22;6521;50.498;8.474;2023-01-15T14:50:33;5.47;72.60
12907;DHT22;6521;50.498;8.474;2023-01-15T14:55:52;5.43;73.50
12907;DHT22;6521;50.498;8.474;2023-01-15T14:58:51;5.42;73.21
12907;DHT22;6521;50.498;8.474;2023-01-15T15:01:48;5.39;73.51
12907;DHT22;6521;50.498;8.474;2023-01-15T15:04:26;5.39;73.58
12907;DHT22;6521;50.498;8.474;2023-01-15T15:07:02;5.47;73.11
12907;DHT22;6521;50.498;8.474;2023-01-15T15:09:39;5.47;73.23
12907;DHT22;6521;50.498;8.474;2023-01-15T15:12:22;5.47;72.36
12907;DHT22;6521;50.498;8.474;2023-01-15T15:17:44;5.50;72.26
12907;DHT22;6521;50.498;8.474;2023-01-15T15:20:21;5.47;72.86
12907;DHT22;6521;50.498;8.474;2023-01-15T15:22:55;5.52;72.09
12907;DHT22;6521;50.498;8.474;2023-01-15T15:25:31;5.52;72.16
12907;DHT22;6521;50.498;8.474;2023-01-15T15:28:07;5.46;72.68
12907;DHT22;6521;50.498;8.474;2023-01-15T15:30:43;5.49;73.16
12907;DHT22;6521;50.498;8.474;2023-01-15T15:33:21;5.46;72.93
12907;DHT22;6521;50.498;8.474;2023-01-15T15:35:55;5.49;72.53
12907;DHT22;6521;50.498;8.474;2023-01-15T15:38:26;5.45;73.27
12907;DHT22;6521;50.498;8.474;2023-01-15T15:41:00;5.46;73.14
12907;DHT22;6521;50.498;8.474;2023-01-15T15:43:48;5.42;73.58
12907;DHT22;6521;50.498;8.474;2023-01-15T15:46:48;5.42;73.31
12907;DHT22;6521;50.498;8.474;2023-01-15T15:49:40;5.38;73.82
12907;DHT22;6521;50.498;8.474;2023-01-15T15:52:20;5.36;74.33
12907;DHT22;6521;50.498;8.474;2023-01-15T15:54:59;5.38;74.78
12907;DHT22;6521;50.498;8.474;2023-01-15T15:57:32;5.42;74.42
12907;DHT22;6521;50.498;8.474;2023-01-15T16:00:16;5.38;74.76
12907;DHT22;6521;50.498;8.474;2023-01-15T16:02:47;5.35;74.65
12907;DHT22;6521;50.498;8.474;2023-01-15T16:05:26;5.38;76.35
12907;DHT22;6521;50.498;8.474;2023-01-15T16:10:52;4.98;79.89
12907;DHT22;6521;50.498;8.474;2023-01-15T16:13:27;4.88;80.81
12907;DHT22;6521;50.498;8.474;2023-01-15T16:16:01;4.77;81.45
12907;DHT22;6521;50.498;8.474;2023-01-15T16:18:47;4.83;81.14
12907;DHT22;6521;50.498;8.474;2023-01-15T16:21:26;4.83;80.57
12907;DHT22;6521;50.498;8.474;2023-01-15T16:24:08;4.84;80.92
12907;DHT22;6521;50.498;8.474;2023-01-15T16:27:05;4.80;81.07
12907;DHT22;6521;50.498;8.474;2023-01-15T16:29:47;4.85;79.65
12907;DHT22;6521;50.498;8.474;2023-01-15T16:32:26;4.83;79.94
12907;DHT22;6521;50.498;8.474;2023-01-15T16:35:24;4.88;79.83
12907;DHT22;6521;50.498;8.474;2023-01-15T16:37:59;4.88;79.53
12907;DHT22;6521;50.498;8.474;2023-01-15T16:40:37;4.89;79.03
12907;DHT22;6521;50.498;8.474;2023-01-15T16:43:10;4.91;78.89
12907;DHT22;6521;50.498;8.474;2023-01-15T16:46:03;4.92;79.51
12907;DHT22;6521;50.498;8.474;2023-01-15T16:48:36;4.88;79.12
12907;DHT22;6521;50.498;8.474;2023-01-15T16:51:33;4.89;79.35
12907;DHT22;6521;50.498;8.474;2023-01-15T16:57:04;4.87;79.33
12907;DHT22;6521;50.498;8.474;2023-01-15T17:02:17;4.83;78.90
12907;DHT22;6521;50.498;8.474;2023-01-15T17:04:52;4.77;79.29
12907;DHT22;6521;50.498;8.474;2023-01-15T17:07:34;4.77;79.20
12907;DHT22;6521;50.498;8.474;2023-01-15T17:10:19;4.74;79.08
12907;DHT22;6521;50.498;8.474;2023-01-15T17:12:50;4.70;79.39
12907;DHT22;6521;50.498;8.474;2023-01-15T17:17:55;4.61;80.14
12907;DHT22;6521;50.498;8.474;2023-01-15T17:20:26;4.58;80.50
12907;DHT22;6521;50.498;8.474;2023-01-15T17:22:57;4.60;80.78
12907;DHT22;6521;50.498;8.474;2023-01-15T17:25:32;4.61;80.90
12907;DHT22;6521;50.498;8.474;2023-01-15T17:28:04;4.58;81.55
12907;DHT22;6521;50.498;8.474;2023-01-15T17:30:35;4.53;81.97
12907;DHT22;6521;50.498;8.474;2023-01-15T17:33:06;4.56;81.92
12907;DHT22;6521;50.498;8.474;2023-01-15T17:35:39;4.61;81.94
12907;DHT22;6521;50.498;8.474;2023-01-15T17:38:11;4.64;81.55
12907;DHT22;6521;50.498;8.474;2023-01-15T17:40:44;4.64;81.75
12907;DHT22;6521;50.498;8.474;2023-01-15T17:43:15;4.60;81.94
12907;DHT22;6521;50.498;8.474;2023-01-15T17:45:46;4.66;81.89
12907;DHT22;6521;50.498;8.474;2023-01-15T17:48:17;4.60;82.22
12907;DHT22;6521;50.498;8.474;2023-01-15T17:50:50;4.63;82.17
12907;DHT22;6521;50.498;8.474;2023-01-15T17:53:21;4.58;82.57
12907;DHT22;6521;50.498;8.474;2023-01-15T17:55:51;4.61;82.18
12907;DHT22;6521;50.498;8.474;2023-01-15T17:58:41;4.58;82.15
12907;DHT22;6521;50.498;8.474;2023-01-15T18:01:43;4.61;81.97
12907;DHT22;6521;50.498;8.474;2023-01-15T18:04:48;4.58;82.28
12907;DHT22;6521;50.498;8.474;2023-01-15T18:07:39;4.56;82.12
12907;DHT22;6521;50.498;8.474;2023-01-15T18:10:13;4.54;82.26
12907;DHT22;6521;50.498;8.474;2023-01-15T18:12:48;4.56;82.40
12907;DHT22;6521;50.498;8.474;2023-01-15T18:15:19;4.57;82.35
12907;DHT22;6521;50.498;8.474;2023-01-15T18:17:49;4.56;82.32
12907;DHT22;6521;50.498;8.474;2023-01-15T18:20:20;4.52;82.75
12907;DHT22;6521;50.498;8.474;2023-01-15T18:22:51;4.50;82.87
12907;DHT22;6521;50.498;8.474;2023-01-15T18:25:21;4.47;82.80
12907;DHT22;6521;50.498;8.474;2023-01-15T18:27:52;4.49;82.92
12907;DHT22;6521;50.498;8.474;2023-01-15T18:30:23;4.49;83.57
12907;DHT22;6521;50.498;8.474;2023-01-15T18:32:54;4.45;84.60
12907;DHT22;6521;50.498;8.474;2023-01-15T18:35:24;4.36;85.51
12907;DHT22;6521;50.498;8.474;2023-01-15T18:37:56;4.19;86.63
12907;DHT22;6521;50.498;8.474;2023-01-15T18:40:26;4.18;87.29
12907;DHT22;6521;50.498;8.474;2023-01-15T18:43:00;4.06;87.76
12907;DHT22;6521;50.498;8.474;2023-01-15T18:45:50;3.96;88.61
12907;DHT22;6521;50.498;8.474;2023-01-15T18:48:39;3.96;88.94
12907;DHT22;6521;50.498;8.474;2023-01-15T18:51:11;3.89;89.13
12907;DHT22;6521;50.498;8.474;2023-01-15T18:53:42;3.87;89.33
12907;DHT22;6521;50.498;8.474;2023-01-15T18:56:13;3.82;89.73